Home > Products > Valid Products > MTR

000
SAUS46 KLOX 071455
MTR9L2
METAR K9L2 071456Z AUTO 00000KT 10SM CLR M01/M07 A3034 RMK AO2
SLP289 T10111072 53009 FZRANO $





000
SAUS46 KLOX 071449
MTRCQT
METAR KCQT 071447Z AUTO 02003KT 10SM CLR 11/M02 A3013 RMK AO2 SLP203
T01111022 53001





000
SAUS46 KLOX 071449
MTRSDB
METAR KSDB 071448Z AUTO 07026G34KT 10SM CLR 09/M07 A3031 RMK AO2 PK
WND 07034/1440 SLP244 T00891067 53001 $





000
SAUS46 KLOX 071349
MTRSDB
METAR KSDB 071348Z AUTO 08024G31KT 10SM CLR 09/M07 A3030 RMK AO2 PK
WND 08032/1337 SLP237 T00891067 $





000
SAUS46 KLOX 071348
MTRCQT
METAR KCQT 071347Z AUTO 00000KT 10SM CLR 12/M03 A3012 RMK AO2 SLP198
T01171033





000
SAUS46 KLOX 071255
MTR9L2
METAR K9L2 071256Z AUTO 00000KT 10SM CLR M01/M06 A3032 RMK AO2
SLP273 T10061061 FZRANO $





000
SAUS46 KLOX 071249
MTRSDB
METAR KSDB 071248Z AUTO 07024G30KT 10SM CLR 09/M07 A3030 RMK AO2 PK
WND 07030/1245 SLP236 T00941067 $





000
SAUS46 KLOX 071249
MTRSDB
METAR KSDB 071248Z AUTO 07024G30KT 10SM CLR 09/M07 A3030 RMK AO2 PK
WND 07030/1245 SLP236 T00941067 $





000
SAUS46 KLOX 071248
MTRCQT
METAR KCQT 071247Z AUTO 00000KT 10SM CLR 13/M03 A3012 RMK AO2 SLP199
T01281033





000
SAUS46 KLOX 071248
MTRCQT
METAR KCQT 071247Z AUTO 00000KT 10SM CLR 13/M03 A3012 RMK AO2 SLP199
T01281033





000
SAUS46 KLOX 071159
MTR9L2
METAR K9L2 071156Z AUTO 00000KT 10SM CLR 00/M06 A3031 RMK AO2 SLP271
T00001061 10061 20000 58005 FZRANO $





000
SAUS46 KLOX 071149
MTRSDB
METAR KSDB 071148Z AUTO 07021G27KT 10SM CLR 09/M07 A3031 RMK AO2 PK
WND 07029/1122 SLP237 T00941072 10094 20072 58007 $





000
SAUS46 KLOX 071148
MTRCQT
METAR KCQT 071147Z AUTO 00000KT 10SM CLR 11/M02 A3013 RMK AO2 SLP201
T01111017 10161 20111 58008





000
SAUS46 KLOX 071055
MTR9L2
METAR K9L2 071056Z AUTO 34004KT 10SM CLR 01/M06 A3032 RMK AO2 SLP274
T00061061 FZRANO $





000
SAUS46 KLOX 071049
MTRSDB
METAR KSDB 071048Z AUTO 07022KT 10SM CLR 09/M07 A3032 RMK AO2 PK WND
08028/1036 SLP238 T00941072 $





000
SAUS46 KLOX 071048
MTRCQT
METAR KCQT 071047Z AUTO 00000KT 10SM CLR 11/M01 A3015 RMK AO2 SLP207
T01111011





000
SAUS46 KLOX 071000
MTR9L2
METAR K9L2 070956Z AUTO 17003KT 10SM CLR 03/M07 A3033 RMK AO2 SLP276
T00281067 $





000
SAUS46 KLOX 071000
MTR9L2
METAR K9L2 070956Z AUTO 17003KT 10SM CLR 03/M07 A3033 RMK AO2 SLP276
T00281067 $





000
SAUS46 KLOX 070949
MTRSDB
METAR KSDB 070948Z AUTO 07021G26KT 10SM CLR 09/M07 A3033 RMK AO2 PK
WND 07026/0941 SLP243 T00941072 $





000
SAUS46 KLOX 070948
MTRCQT
METAR KCQT 070947Z AUTO 00000KT 10SM CLR 12/M01 A3016 RMK AO2 SLP210
T01221011





000
SAUS46 KLOX 070855
MTR9L2
METAR K9L2 070856Z AUTO 36005KT 10SM CLR 04/M06 A3033 RMK AO2 SLP276
T00391056 51001 $





000
SAUS46 KLOX 070855
MTR9L2
METAR K9L2 070856Z AUTO 36005KT 10SM CLR 04/M06 A3033 RMK AO2 SLP276
T00391056 51001 $





000
SAUS46 KLOX 070849
MTRSDB
METAR KSDB 070848Z AUTO 07019G25KT 10SM CLR 09/M07 A3033 RMK AO2
SLP244 T00891072 58006 $





000
SAUS46 KLOX 070848
MTRCQT
METAR KCQT 070847Z AUTO 00000KT 10SM CLR 15/M03 A3015 RMK AO2 SLP209
T01501028 58002





000
SAUS46 KLOX 070756
MTR9L2
METAR K9L2 070756Z AUTO 00000KT 10SM CLR 05/M06 A3033 RMK AO2 SLP276
T00501056 401891028 $





000
SAUS46 KLOX 070749
MTRSDB
METAR KSDB 070748Z AUTO 06013G21KT 10SM CLR 08/M06 A3034 RMK AO2
SLP253 T00781061 401330044 $





000
SAUS46 KLOX 070748
MTRCQT
METAR KCQT 070747Z AUTO 00000KT 10SM CLR 16/M03 A3016 RMK AO2 SLP211
T01611028 402500100





000
SAUS46 KLOX 070655
MTR9L2
METAR K9L2 070656Z AUTO 34007KT 10SM CLR 05/M06 A3034 RMK AO2 SLP280
T00501056 $





000
SAUS46 KLOX 070655
MTR9L2
METAR K9L2 070656Z AUTO 34007KT 10SM CLR 05/M06 A3034 RMK AO2 SLP280
T00501056 $





000
SAUS46 KLOX 070649
MTRSDB
METAR KSDB 070648Z AUTO 06016G22KT 10SM CLR 08/M06 A3034 RMK AO2
SLP252 T00831061 $





000
SAUS46 KLOX 070649
MTRSDB
METAR KSDB 070648Z AUTO 06016G22KT 10SM CLR 08/M06 A3034 RMK AO2
SLP252 T00831061 $





000
SAUS46 KLOX 070648
MTRCQT
METAR KCQT 070647Z AUTO 00000KT 10SM CLR 14/00 A3016 RMK AO2 SLP211
T01440000





000
SAUS46 KLOX 070648
MTRCQT
METAR KCQT 070647Z AUTO 00000KT 10SM CLR 14/00 A3016 RMK AO2 SLP211
T01440000





000
SAUS46 KLOX 070555
MTR9L2
METAR K9L2 070556Z AUTO 00000KT 10SM CLR 03/M05 A3033 RMK AO2 SLP281
T00331050 10189 20028 51009 $





000
SAUS46 KLOX 070549
MTRSDB
METAR KSDB 070548Z AUTO 03010KT 10SM CLR 08/M05 A3035 RMK AO2 SLP258
T00781050 10122 20078 51010 $





000
SAUS46 KLOX 070549
MTRSDB
METAR KSDB 070548Z AUTO 03010KT 10SM CLR 08/M05 A3035 RMK AO2 SLP258
T00781050 10122 20078 51010 $





000
SAUS46 KLOX 070548
MTRCQT
METAR KCQT 070547Z AUTO 00000KT 10SM CLR 16/00 A3016 RMK AO2 SLP211
T01560000 10239 20150 51005





000
SAUS46 KLOX 070548
MTRCQT
METAR KCQT 070547Z AUTO 00000KT 10SM CLR 16/00 A3016 RMK AO2 SLP211
T01560000 10239 20150 51005





000
SAUS46 KLOX 070455
MTR9L2
METAR K9L2 070456Z AUTO 00000KT 10SM CLR 07/M06 A3033 RMK AO2 SLP282
T00721056 $





000
SAUS46 KLOX 070455
MTR9L2
METAR K9L2 070456Z AUTO 00000KT 10SM CLR 07/M06 A3033 RMK AO2 SLP282
T00721056 $





000
SAUS46 KLOX 070449
MTRSDB
METAR KSDB 070448Z AUTO 04010KT 10SM CLR 08/M05 A3035 RMK AO2 SLP260
T00781050 $





000
SAUS46 KLOX 070448
MTRCQT
METAR KCQT 070447Z AUTO 00000KT 10SM CLR 17/00 A3015 RMK AO2 SLP209
T01670000





000
SAUS46 KLOX 070355
MTR9L2
METAR K9L2 070356Z AUTO 01004KT 10SM CLR 08/M06 A3032 RMK AO2 SLP279
T00831056 $





000
SAUS46 KLOX 070355
MTR9L2
METAR K9L2 070356Z AUTO 01004KT 10SM CLR 08/M06 A3032 RMK AO2 SLP279
T00831056 $





000
SAUS46 KLOX 070349
MTRSDB
METAR KSDB 070348Z AUTO 05013KT 10SM CLR 09/M06 A3034 RMK AO2 SLP256
T00891056 $





000
SAUS46 KLOX 070348
MTRCQT
METAR KCQT 070347Z AUTO 00000KT 10SM CLR 17/M01 A3015 RMK AO2 SLP209
T01721011





000
SAUS46 KLOX 070348
MTRCQT
METAR KCQT 070347Z AUTO 00000KT 10SM CLR 17/M01 A3015 RMK AO2 SLP209
T01721011





000
SAUS46 KLOX 070255
MTR9L2
METAR K9L2 070256Z AUTO 03003KT 10SM CLR 10/M04 A3030 RMK AO2 SLP275
T01001039 53003 $





000
SAUS46 KLOX 070249
MTRSDB
METAR KSDB 070248Z AUTO 05012KT 10SM CLR 09/M06 A3032 RMK AO2 SLP251
T00891056 56002 $





000
SAUS46 KLOX 070248
MTRCQT
METAR KCQT 070247Z AUTO 00000KT 10SM CLR 18/M03 A3014 RMK AO2 SLP206
T01831028 53005





000
SAUS46 KLOX 070155
MTR9L2
METAR K9L2 070156Z AUTO 31003KT 10SM CLR 13/M04 A3030 RMK AO2 SLP271
T01331039 $





000
SAUS46 KLOX 070155
MTR9L2
METAR K9L2 070156Z AUTO 31003KT 10SM CLR 13/M04 A3030 RMK AO2 SLP271
T01331039 $





000
SAUS46 KLOX 070149
MTRCQT
METAR KCQT 070147Z AUTO 00000KT 10SM CLR 19/M03 A3013 RMK AO2 SLP204
T01941028





000
SAUS46 KLOX 070149
MTRCQT
METAR KCQT 070147Z AUTO 00000KT 10SM CLR 19/M03 A3013 RMK AO2 SLP204
T01941028





000
SAUS46 KLOX 070149
MTRSDB
METAR KSDB 070148Z AUTO 06012KT 10SM CLR 09/M06 A3032 RMK AO2 SLP249
T00941056 $





000
SAUS46 KLOX 070149
MTRSDB
METAR KSDB 070148Z AUTO 06012KT 10SM CLR 09/M06 A3032 RMK AO2 SLP249
T00941056 $





000
SAUS46 KLOX 070055
MTR9L2
METAR K9L2 070056Z AUTO 33004KT 10SM CLR 17/M04 A3029 RMK AO2 SLP263
T01721044 $





000
SAUS46 KLOX 070055
MTR9L2
METAR K9L2 070056Z AUTO 33004KT 10SM CLR 17/M04 A3029 RMK AO2 SLP263
T01721044 $





000
SAUS46 KLOX 070049
MTRSDB
METAR KSDB 070048Z AUTO 05015KT 10SM CLR 11/M06 A3032 RMK AO2 SLP248
T01111061 $





000
SAUS46 KLOX 070049
MTRSDB
METAR KSDB 070048Z AUTO 05015KT 10SM CLR 11/M06 A3032 RMK AO2 SLP248
T01111061 $





000
SAUS46 KLOX 070048
MTRCQT
METAR KCQT 070047Z AUTO 27004KT 10SM CLR 22/M04 A3013 RMK AO2 SLP202
T02221044





000
SAUS46 KLOX 070048
MTRCQT
METAR KCQT 070047Z AUTO 27004KT 10SM CLR 22/M04 A3013 RMK AO2 SLP202
T02221044





000
SAUS46 KLOX 062355
MTR9L2
METAR K9L2 062356Z AUTO 11006KT 10SM CLR 18/M07 A3029 RMK AO2 SLP263
T01831067 10189 20083 56017 $





000
SAUS46 KLOX 062355
MTR9L2
METAR K9L2 062356Z AUTO 11006KT 10SM CLR 18/M07 A3029 RMK AO2 SLP263
T01831067 10189 20083 56017 $





000
SAUS46 KLOX 062349
MTRSDB
METAR KSDB 062348Z AUTO 05013KT 10SM CLR 12/M06 A3032 RMK AO2 SLP246
T01221056 10133 20094 56011 $





000
SAUS46 KLOX 062349
MTRSDB
METAR KSDB 062348Z AUTO 05013KT 10SM CLR 12/M06 A3032 RMK AO2 SLP246
T01221056 10133 20094 56011 $





000
SAUS46 KLOX 062349
MTRCQT
METAR KCQT 062347Z AUTO 00000KT 10SM CLR 24/M02 A3013 RMK AO2 SLP201
T02391017 10250 20200 56019





000
SAUS46 KLOX 062349
MTRCQT
METAR KCQT 062347Z AUTO 00000KT 10SM CLR 24/M02 A3013 RMK AO2 SLP201
T02391017 10250 20200 56019





000
SAUS46 KLOX 062255
MTR9L2
METAR K9L2 062256Z AUTO 08003KT 10SM CLR 18/M07 A3030 RMK AO2 SLP265
T01831072 $





000
SAUS46 KLOX 062255
MTR9L2
METAR K9L2 062256Z AUTO 08003KT 10SM CLR 18/M07 A3030 RMK AO2 SLP265
T01831072 $





000
SAUS46 KLOX 062249
MTRSDB
METAR KSDB 062248Z AUTO 04013G18KT 10SM CLR 13/M06 A3033 RMK AO2
SLP249 T01331056 $





000
SAUS46 KLOX 062249
MTRSDB
METAR KSDB 062248Z AUTO 04013G18KT 10SM CLR 13/M06 A3033 RMK AO2
SLP249 T01331056 $





000
SAUS46 KLOX 062248
MTRCQT
METAR KCQT 062247Z AUTO 29003KT 10SM CLR 25/M05 A3014 RMK AO2 SLP203
T02501050





000
SAUS46 KLOX 062155
MTR9L2
METAR K9L2 062156Z AUTO VRB04KT 10SM CLR 18/M07 A3031 RMK AO2 SLP269
T01831067 $





000
SAUS46 KLOX 062155
MTR9L2
METAR K9L2 062156Z AUTO VRB04KT 10SM CLR 18/M07 A3031 RMK AO2 SLP269
T01831067 $





000
SAUS46 KLOX 062149
MTRSDB
METAR KSDB 062148Z AUTO 06015G23KT 10SM CLR 13/M06 A3034 RMK AO2
SLP253 T01281056 $





000
SAUS46 KLOX 062148
MTRCQT
METAR KCQT 062147Z AUTO VRB03KT 10SM CLR 25/M04 A3015 RMK AO2 SLP209
T02501039





000
SAUS46 KLOX 062055
MTR9L2
METAR K9L2 062056Z AUTO 00000KT 10SM CLR 16/M06 A3034 RMK AO2 SLP282
T01561061 58031 $





000
SAUS46 KLOX 062049
MTRSDB
METAR KSDB 062048Z AUTO 05015G21KT 10SM CLR 13/M05 A3036 RMK AO2 PK
WND 07026/2014 SLP257 T01281050 58019 $





000
SAUS46 KLOX 062048
MTRCQT
METAR KCQT 062047Z AUTO 00000KT 10SM CLR 24/M03 A3018 RMK AO2 SLP220
T02441033 58030





000
SAUS46 KLOX 061955
MTR9L2
METAR K9L2 061956Z AUTO 00000KT 10SM CLR 14/M06 A3039 RMK AO2 SLP297
T01391061 $





000
SAUS46 KLOX 061949
MTRSDB
METAR KSDB 061948Z AUTO 07019G28KT 10SM CLR 11/M06 A3039 RMK AO2 PK
WND 07028/1925 SLP272 T01111061 $





000
SAUS46 KLOX 061948
MTRCQT
METAR KCQT 061947Z AUTO 00000KT 10SM CLR 24/M03 A3023 RMK AO2 SLP235
T02391033





000
SAUS46 KLOX 061855
MTR9L2
METAR K9L2 061856Z AUTO 16005KT 10SM CLR 12/M04 A3042 RMK AO2 SLP310
T01171039 $





000
SAUS46 KLOX 061855
MTR9L2
METAR K9L2 061856Z AUTO 16005KT 10SM CLR 12/M04 A3042 RMK AO2 SLP310
T01171039 $





000
SAUS46 KLOX 061849
MTRSDB
METAR KSDB 061848Z AUTO 07021G26KT 10SM CLR 11/M06 A3042 RMK AO2 PK
WND 08028/1821 SLP281 T01061056 $





000
SAUS46 KLOX 061849
MTRSDB
METAR KSDB 061848Z AUTO 07021G26KT 10SM CLR 11/M06 A3042 RMK AO2 PK
WND 08028/1821 SLP281 T01061056 $





000
SAUS46 KLOX 061848
MTRCQT
METAR KCQT 061847Z AUTO 00000KT 10SM CLR 22/M06 A3026 RMK AO2 SLP247
T02171056





000
SAUS46 KLOX 061848
MTRCQT
METAR KCQT 061847Z AUTO 00000KT 10SM CLR 22/M06 A3026 RMK AO2 SLP247
T02171056





000
SAUS46 KLOX 061755
MTR9L2
METAR K9L2 061756Z AUTO 00000KT 10SM CLR 08/M04 A3044 RMK AO2 SLP318
T00831044 10083 21028 51007 $





000
SAUS46 KLOX 061749
MTRSDB
METAR KSDB 061748Z AUTO 06017G25KT 10SM CLR 09/M06 A3043 RMK AO2 PK
WND 07028/1736 SLP285 T00941061 10094 20044 51013 $





000
SAUS46 KLOX 061749
MTRSDB
METAR KSDB 061748Z AUTO 06017G25KT 10SM CLR 09/M06 A3043 RMK AO2 PK
WND 07028/1736 SLP285 T00941061 10094 20044 51013 $





000
SAUS46 KLOX 061748
MTRCQT
METAR KCQT 061747Z AUTO 00000KT 10SM CLR 21/M04 A3027 RMK AO2 SLP250
T02061044 10206 20100 50005





000
SAUS46 KLOX 061748
MTRCQT
METAR KCQT 061747Z AUTO 00000KT 10SM CLR 21/M04 A3027 RMK AO2 SLP250
T02061044 10206 20100 50005





000
SAUS46 KLOX 061655
MTR9L2
METAR K9L2 061656Z AUTO 00000KT 10SM CLR 03/M06 A3043 RMK AO2 SLP321
T00331056 $





000
SAUS46 KLOX 061655
MTR9L2
METAR K9L2 061656Z AUTO 00000KT 10SM CLR 03/M06 A3043 RMK AO2 SLP321
T00331056 $





000
SAUS46 KLOX 061649
MTRSDB
METAR KSDB 061648Z AUTO 06013G24KT 10SM CLR 08/M06 A3042 RMK AO2
SLP282 T00831056 $





000
SAUS46 KLOX 061648
MTRCQT
METAR KCQT 061647Z AUTO 00000KT 10SM CLR 17/M03 A3028 RMK AO2 SLP251
T01721033





000
SAUS46 KLOX 061555
MTR9L2
METAR K9L2 061556Z AUTO 00000KT 10SM CLR 01/M07 A3043 RMK AO2 SLP318
T00111067 FZRANO $





000
SAUS46 KLOX 061549
MTRSDB
METAR KSDB 061548Z AUTO 06014G24KT 10SM CLR 06/M07 A3040 RMK AO2 PK
WND 07028/1453 SLP281 T00611067 $





000
SAUS46 KLOX 061549
MTRSDB
METAR KSDB 061548Z AUTO 06014G24KT 10SM CLR 06/M07 A3040 RMK AO2 PK
WND 07028/1453 SLP281 T00611067 $





000
SAUS46 KLOX 061548
MTRCQT
METAR KCQT 061547Z AUTO 00000KT 10SM CLR 12/M02 A3027 RMK AO2 SLP249
T01171022





000
SAUS46 KLOX 061548
MTRCQT
METAR KCQT 061547Z AUTO 00000KT 10SM CLR 12/M02 A3027 RMK AO2 SLP249
T01171022





000
SAUS46 KLOX 061455
MTR9L2
METAR K9L2 061456Z AUTO 00000KT 10SM CLR M03/M07 A3042 RMK AO2
SLP317 T10281067 55002 FZRANO $





000
SAUS46 KLOX 061449
MTRSDB
METAR KSDB 061448Z AUTO 07021G28KT 10SM CLR 06/M07 A3038 RMK AO2 PK
WND 07030/1404 SLP274 T00561072 55005 $





000
SAUS46 KLOX 061449
MTRCQT
METAR KCQT 061447Z AUTO 00000KT 10SM CLR 10/M03 A3026 RMK AO2 SLP246
T01001028 55008





000
SAUS46 KLOX 061449
MTRCQT
METAR KCQT 061447Z AUTO 00000KT 10SM CLR 10/M03 A3026 RMK AO2 SLP246
T01001028 55008





000
SAUS46 KLOX 061449
MTRSDB
METAR KSDB 061448Z AUTO 07021G28KT 10SM CLR 06/M07 A3038 RMK AO2 PK
WND 07030/1404 SLP274 T00561072 55005 $





000
SAUS46 KLOX 061355
MTR9L2
METAR K9L2 061356Z AUTO 00000KT 10SM CLR M03/M07 A3041 RMK AO2
SLP312 T10281067 FZRANO $





000
SAUS46 KLOX 061349
MTRSDB
METAR KSDB 061348Z AUTO 06020G30KT 10SM CLR 06/M07 A3037 RMK AO2 PK
WND 07030/1346 SLP270 T00611072 $





000
SAUS46 KLOX 061348
MTRCQT
METAR KCQT 061347Z AUTO 01003KT 3SM HZ CLR 10/M02 A3025 RMK AO2
SLP242 T01001022





000
SAUS46 KLOX 061255
MTR9L2
METAR K9L2 061256Z AUTO 00000KT 10SM CLR M01/M07 A3041 RMK AO2
SLP307 T10111067 FZRANO $





000
SAUS46 KLOX 061250
MTRSDB
METAR KSDB 061248Z AUTO 06019G27KT 10SM CLR 06/M07 A3038 RMK AO2 PK
WND 07030/1210 SLP270 T00561072 $





000
SAUS46 KLOX 061250
MTRSDB
METAR KSDB 061248Z AUTO 06019G27KT 10SM CLR 06/M07 A3038 RMK AO2 PK
WND 07030/1210 SLP270 T00561072 $





000
SAUS46 KLOX 061248
MTRCQT
METAR KCQT 061247Z AUTO 00000KT 10SM CLR 12/M03 A3025 RMK AO2 SLP242
T01171033





000
SAUS46 KLOX 061248
MTRCQT
METAR KCQT 061247Z AUTO 00000KT 10SM CLR 12/M03 A3025 RMK AO2 SLP242
T01171033





000
SAUS46 KLOX 061155
MTR9L2
METAR K9L2 061156Z AUTO 00000KT 10SM CLR M01/M06 A3043 RMK AO2
SLP311 T10111061 10061 21011 55001 FZRANO $





000
SAUS46 KLOX 061155
MTR9L2
METAR K9L2 061156Z AUTO 00000KT 10SM CLR M01/M06 A3043 RMK AO2
SLP311 T10111061 10061 21011 55001 FZRANO $





000
SAUS46 KLOX 061149
MTRSDB
METAR KSDB 061148Z AUTO 06016G24KT 10SM CLR 06/M07 A3040 RMK AO2
SLP274 T00611072 10072 20050 58006 $





000
SAUS46 KLOX 061149
MTRSDB
METAR KSDB 061148Z AUTO 06016G24KT 10SM CLR 06/M07 A3040 RMK AO2
SLP274 T00611072 10072 20050 58006 $





000
SAUS46 KLOX 061148
MTRCQT
METAR KCQT 061147Z AUTO 00000KT 10SM CLR 11/M02 A3028 RMK AO2 SLP253
T01061022 10161 20106 53001





000
SAUS46 KLOX 061148
MTRCQT
METAR KCQT 061147Z AUTO 00000KT 10SM CLR 11/M02 A3028 RMK AO2 SLP253
T01061022 10161 20106 53001





000
SAUS46 KLOX 061055
MTR9L2
METAR K9L2 061056Z AUTO 19003KT 10SM CLR M01/M06 A3042 RMK AO2
SLP306 T10061061 FZRANO $





000
SAUS46 KLOX 061055
MTR9L2
METAR K9L2 061056Z AUTO 19003KT 10SM CLR M01/M06 A3042 RMK AO2
SLP306 T10061061 FZRANO $





000
SAUS46 KLOX 061049
MTRSDB
METAR KSDB 061048Z AUTO 05015KT 10SM CLR 05/M07 A3042 RMK AO2 PK WND
07027/1023 SLP282 T00501072 $





000
SAUS46 KLOX 061049
MTRSDB
METAR KSDB 061048Z AUTO 05015KT 10SM CLR 05/M07 A3042 RMK AO2 PK WND
07027/1023 SLP282 T00501072 $





000
SAUS46 KLOX 061048
MTRCQT
METAR KCQT 061047Z AUTO 00000KT 10SM CLR 12/M02 A3027 RMK AO2 SLP250
T01171022





000
SAUS46 KLOX 061048
MTRCQT
METAR KCQT 061047Z AUTO 00000KT 10SM CLR 12/M02 A3027 RMK AO2 SLP250
T01171022





000
SAUS46 KLOX 060955
MTR9L2
METAR K9L2 060956Z AUTO 36003KT 10SM CLR 01/M06 A3043 RMK AO2 SLP309
T00111056 FZRANO $





000
SAUS46 KLOX 060949
MTRSDB
METAR KSDB 060948Z AUTO 07018G24KT 10SM CLR 06/M07 A3041 RMK AO2
SLP278 T00611072 $





000
SAUS46 KLOX 060948
MTRCQT
METAR KCQT 060947Z AUTO 00000KT 10SM CLR 14/M04 A3028 RMK AO2 SLP253
T01391039





000
SAUS46 KLOX 060948
MTRCQT
METAR KCQT 060947Z AUTO 00000KT 10SM CLR 14/M04 A3028 RMK AO2 SLP253
T01391039





000
SAUS46 KLOX 060855
MTR9L2
METAR K9L2 060856Z AUTO 36004KT 10SM CLR 02/M06 A3043 RMK AO2 SLP310
T00171056 51002 FZRANO $





000
SAUS46 KLOX 060849
MTRSDB
METAR KSDB 060848Z AUTO 07018G25KT 10SM CLR 07/M07 A3042 RMK AO2 PK
WND 07026/0836 SLP282 T00671072 50002 $





000
SAUS46 KLOX 060848
MTRCQT
METAR KCQT 060847Z AUTO 03003KT 10SM CLR 13/M03 A3028 RMK AO2 SLP252
T01331028 50004





000
SAUS46 KLOX 060848
MTRCQT
METAR KCQT 060847Z AUTO 03003KT 10SM CLR 13/M03 A3028 RMK AO2 SLP252
T01331028 50004





000
SAUS46 KLOX 060754
MTR9L2
METAR K9L2 060756Z AUTO 29003KT 10SM CLR 03/M06 A3043 RMK AO2 SLP311
T00281056 401831033 $





000
SAUS46 KLOX 060749
MTRSDB
METAR KSDB 060748Z AUTO 07020G26KT 10SM CLR 07/M08 A3042 RMK AO2 PK
WND 07026/0650 SLP283 T00671078 401110039 $





000
SAUS46 KLOX 060748
MTRCQT
METAR KCQT 060747Z AUTO 00000KT 10SM CLR 15/M04 A3028 RMK AO2 SLP253
T01501039 402440078





000
SAUS46 KLOX 060655
MTR9L2
METAR K9L2 060656Z AUTO 31005KT 10SM CLR 03/M06 A3043 RMK AO2 SLP313
T00331061 $





000
SAUS46 KLOX 060655
MTR9L2
METAR K9L2 060656Z AUTO 31005KT 10SM CLR 03/M06 A3043 RMK AO2 SLP313
T00331061 $





000
SAUS46 KLOX 060649
MTRCQT
METAR KCQT 060647Z AUTO 00000KT 10SM CLR 14/M02 A3028 RMK AO2 SLP251
T01441017





000
SAUS46 KLOX 060649
MTRSDB
METAR KSDB 060648Z AUTO 07022KT 10SM CLR 07/M07 A3042 RMK AO2 PK WND
07030/0554 SLP285 T00721072 $





000
SAUS46 KLOX 060649
MTRCQT
METAR KCQT 060647Z AUTO 00000KT 10SM CLR 14/M02 A3028 RMK AO2 SLP251
T01441017





000
SAUS46 KLOX 060649
MTRSDB
METAR KSDB 060648Z AUTO 07022KT 10SM CLR 07/M07 A3042 RMK AO2 PK WND
07030/0554 SLP285 T00721072 $





000
SAUS46 KLOX 060554
MTR9L2
METAR K9L2 060556Z AUTO 36003KT 10SM CLR 06/M07 A3042 RMK AO2 SLP310
T00611067 10178 20033 52007 $





000
SAUS46 KLOX 060554
MTR9L2
METAR K9L2 060556Z AUTO 36003KT 10SM CLR 06/M07 A3042 RMK AO2 SLP310
T00611067 10178 20033 52007 $





000
SAUS46 KLOX 060549
MTRSDB
METAR KSDB 060548Z AUTO 07022G29KT 10SM CLR 07/M07 A3041 RMK AO2 PK
WND 08029/0539 SLP282 T00721072 10111 20072 52003 $





000
SAUS46 KLOX 060549
MTRSDB
METAR KSDB 060548Z AUTO 07022G29KT 10SM CLR 07/M07 A3041 RMK AO2 PK
WND 08029/0539 SLP282 T00721072 10111 20072 52003 $





000
SAUS46 KLOX 060548
MTRCQT
METAR KCQT 060547Z AUTO 00000KT 10SM CLR 16/M02 A3027 RMK AO2 SLP248
T01561017 10244 20150 51005





000
SAUS46 KLOX 060548
MTRCQT
METAR KCQT 060547Z AUTO 00000KT 10SM CLR 16/M02 A3027 RMK AO2 SLP248
T01561017 10244 20150 51005





000
SAUS46 KLOX 060455
MTR9L2
METAR K9L2 060456Z AUTO 00000KT 10SM CLR 05/M06 A3042 RMK AO2 SLP313
T00501061 $





000
SAUS46 KLOX 060455
MTR9L2
METAR K9L2 060456Z AUTO 00000KT 10SM CLR 05/M06 A3042 RMK AO2 SLP313
T00501061 $





000
SAUS46 KLOX 060449
MTRSDB
METAR KSDB 060448Z AUTO 07019G25KT 10SM CLR 08/M07 A3041 RMK AO2
SLP282 T00781072 $





000
SAUS46 KLOX 060449
MTRSDB
METAR KSDB 060448Z AUTO 07019G25KT 10SM CLR 08/M07 A3041 RMK AO2
SLP282 T00781072 $





000
SAUS46 KLOX 060448
MTRCQT
METAR KCQT 060447Z AUTO 00000KT 10SM CLR 16/01 A3027 RMK AO2 SLP248
T01610011





000
SAUS46 KLOX 060355
MTR9L2
METAR K9L2 060356Z AUTO 02003KT 10SM CLR 07/M06 A3041 RMK AO2 SLP311
T00721061 $





000
SAUS46 KLOX 060355
MTR9L2
METAR K9L2 060356Z AUTO 02003KT 10SM CLR 07/M06 A3041 RMK AO2 SLP311
T00721061 $





000
SAUS46 KLOX 060349
MTRSDB
METAR KSDB 060348Z AUTO 07019KT 10SM CLR 08/M07 A3040 RMK AO2 SLP281
T00781067 $





000
SAUS46 KLOX 060348
MTRCQT
METAR KCQT 060347Z AUTO 00000KT 10SM CLR 18/02 A3026 RMK AO2 SLP247
T01780022





000
SAUS46 KLOX 060348
MTRCQT
METAR KCQT 060347Z AUTO 00000KT 10SM CLR 18/02 A3026 RMK AO2 SLP247
T01780022





000
SAUS46 KLOX 060254
MTR9L2
METAR K9L2 060256Z AUTO 04007KT 10SM CLR 10/M07 A3040 RMK AO2 SLP311
T01001067 53011 $





000
SAUS46 KLOX 060254
MTR9L2
METAR K9L2 060256Z AUTO 04007KT 10SM CLR 10/M07 A3040 RMK AO2 SLP311
T01001067 53011 $





000
SAUS46 KLOX 060249
MTRSDB
METAR KSDB 060248Z AUTO 07017G21KT 10SM CLR 08/M06 A3040 RMK AO2
SLP282 T00781061 53002 $





000
SAUS46 KLOX 060249
MTRSDB
METAR KSDB 060248Z AUTO 07017G21KT 10SM CLR 08/M06 A3040 RMK AO2
SLP282 T00781061 53002 $





000
SAUS46 KLOX 060248
MTRCQT
METAR KCQT 060247Z AUTO 00000KT 10SM CLR 19/01 A3025 RMK AO2 SLP244
T01890006 53010





000
SAUS46 KLOX 060248
MTRCQT
METAR KCQT 060247Z AUTO 00000KT 10SM CLR 19/01 A3025 RMK AO2 SLP244
T01890006 53010





000
SAUS46 KLOX 060159
MTR9L2
METAR K9L2 060156Z AUTO 05005KT 10SM CLR 12/M07 A3039 RMK AO2 SLP303
T01171067 $





000
SAUS46 KLOX 060159
MTR9L2
METAR K9L2 060156Z AUTO 05005KT 10SM CLR 12/M07 A3039 RMK AO2 SLP303
T01171067 $





000
SAUS46 KLOX 060149
MTRCQT
METAR KCQT 060147Z AUTO 00000KT 10SM CLR 21/M01 A3024 RMK AO2 SLP240
T02111006





000
SAUS46 KLOX 060149
MTRSDB
METAR KSDB 060148Z AUTO 07014KT 10SM CLR 08/M06 A3040 RMK AO2 SLP282
T00831061 $





000
SAUS46 KLOX 060149
MTRSDB
METAR KSDB 060148Z AUTO 07014KT 10SM CLR 08/M06 A3040 RMK AO2 SLP282
T00831061 $





000
SAUS46 KLOX 060055
MTR9L2
METAR K9L2 060056Z AUTO 12005KT 10SM CLR 16/M07 A3037 RMK AO2 SLP295
T01561067 $





000
SAUS46 KLOX 060055
MTR9L2
METAR K9L2 060056Z AUTO 12005KT 10SM CLR 16/M07 A3037 RMK AO2 SLP295
T01561067 $





000
SAUS46 KLOX 060049
MTRSDB
METAR KSDB 060048Z AUTO 07017G24KT 10SM CLR 10/M07 A3039 RMK AO2
SLP275 T01001067 $





000
SAUS46 KLOX 060049
MTRSDB
METAR KSDB 060048Z AUTO 07017G24KT 10SM CLR 10/M07 A3039 RMK AO2
SLP275 T01001067 $





000
SAUS46 KLOX 060048
MTRCQT
METAR KCQT 060047Z AUTO 00000KT 10SM CLR 23/M03 A3023 RMK AO2 SLP235
T02331033





000
SAUS46 KLOX 060048
MTRCQT
METAR KCQT 060047Z AUTO 00000KT 10SM CLR 23/M03 A3023 RMK AO2 SLP235
T02331033





000
SAUS46 KLOX 052355
MTR9L2
METAR K9L2 052356Z AUTO 04008KT 10SM CLR 18/M08 A3037 RMK AO2 SLP290
T01781083 10183 20106 56016 $





000
SAUS46 KLOX 052355
MTR9L2
METAR K9L2 052356Z AUTO 04008KT 10SM CLR 18/M08 A3037 RMK AO2 SLP290
T01781083 10183 20106 56016 $





000
SAUS46 KLOX 052349
MTRSDB
METAR KSDB 052348Z AUTO 08019G24KT 10SM CLR 11/M07 A3039 RMK AO2 PK
WND 07027/2259 SLP275 T01111067 10111 20078 56011 $





000
SAUS46 KLOX 052349
MTRCQT
METAR KCQT 052347Z AUTO VRB03KT 10SM CLR 24/M04 A3022 RMK AO2 SLP233
T02441044 10244 20194 56016





000
SAUS46 KLOX 052349
MTRCQT
METAR KCQT 052347Z AUTO VRB03KT 10SM CLR 24/M04 A3022 RMK AO2 SLP233
T02441044 10244 20194 56016





000
SAUS46 KLOX 052349
MTRSDB
METAR KSDB 052348Z AUTO 08019G24KT 10SM CLR 11/M07 A3039 RMK AO2 PK
WND 07027/2259 SLP275 T01111067 10111 20078 56011 $





000
SAUS46 KLOX 052255
MTR9L2
METAR K9L2 052256Z AUTO 10005KT 10SM CLR 18/M08 A3038 RMK AO2 SLP294
T01781083 $





000
SAUS46 KLOX 052255
MTR9L2
METAR K9L2 052256Z AUTO 10005KT 10SM CLR 18/M08 A3038 RMK AO2 SLP294
T01781083 $





000
SAUS46 KLOX 052249
MTRSDB
METAR KSDB 052248Z AUTO 07017G25KT 10SM CLR 11/M06 A3040 RMK AO2
SLP279 T01111061 $





000
SAUS46 KLOX 052249
MTRCQT
METAR KCQT 052247Z AUTO VRB04KT 10SM CLR 24/M04 A3023 RMK AO2 SLP236
T02441044





000
SAUS46 KLOX 052249
MTRCQT
METAR KCQT 052247Z AUTO VRB04KT 10SM CLR 24/M04 A3023 RMK AO2 SLP236
T02441044





000
SAUS46 KLOX 052249
MTRSDB
METAR KSDB 052248Z AUTO 07017G25KT 10SM CLR 11/M06 A3040 RMK AO2
SLP279 T01111061 $





000
SAUS46 KLOX 052155
MTR9L2
METAR K9L2 052156Z AUTO 05008KT 10SM CLR 17/M08 A3040 RMK AO2 SLP300
T01721083 $





000
SAUS46 KLOX 052149
MTRSDB
METAR KSDB 052148Z AUTO 07017G26KT 10SM CLR 11/M06 A3041 RMK AO2 PK
WND 08026/2057 SLP282 T01061056 $





000
SAUS46 KLOX 052149
MTRSDB
METAR KSDB 052148Z AUTO 07017G26KT 10SM CLR 11/M06 A3041 RMK AO2 PK
WND 08026/2057 SLP282 T01061056 $





000
SAUS46 KLOX 052148
MTRCQT
METAR KCQT 052147Z AUTO VRB03KT 10SM CLR 23/M07 A3025 RMK AO2 SLP242
T02331072





000
SAUS46 KLOX 052059
MTR9L2
METAR K9L2 052056Z AUTO 07005KT 10SM CLR 17/M08 A3042 RMK AO2 SLP307
T01671078 58023 $





000
SAUS46 KLOX 052059
MTR9L2
METAR K9L2 052056Z AUTO 07005KT 10SM CLR 17/M08 A3042 RMK AO2 SLP307
T01671078 58023 $





000
SAUS46 KLOX 052049
MTRSDB
METAR KSDB 052048Z AUTO 07018G26KT 10SM CLR 10/M06 A3043 RMK AO2 PK
WND 08031/1952 SLP288 T01001056 58004 $





000
SAUS46 KLOX 052048
MTRCQT
METAR KCQT 052047Z AUTO VRB03KT 10SM CLR 24/M07 A3027 RMK AO2 SLP249
T02391067 58019





000
SAUS46 KLOX 052048
MTRCQT
METAR KCQT 052047Z AUTO VRB03KT 10SM CLR 24/M07 A3027 RMK AO2 SLP249
T02391067 58019





000
SAUS46 KLOX 051955
MTR9L2
METAR K9L2 051956Z AUTO 08004KT 10SM CLR 15/M06 A3045 RMK AO2 SLP319
T01501061 $





000
SAUS46 KLOX 051949
MTRSDB
METAR KSDB 051948Z AUTO 08021G28KT 10SM CLR 09/M06 A3045 RMK AO2 PK
WND 08028/1939 SLP297 T00941056 $





000
SAUS46 KLOX 051948
MTRCQT
METAR KCQT 051947Z AUTO 00000KT 10SM CLR 22/M05 A3030 RMK AO2 SLP261
T02221050





000
SAUS46 KLOX 051948
MTRCQT
METAR KCQT 051947Z AUTO 00000KT 10SM CLR 22/M05 A3030 RMK AO2 SLP261
T02221050





000
SAUS46 KLOX 051854
MTR9L2
METAR K9L2 051856Z AUTO 05005KT 10SM CLR 13/M06 A3048 RMK AO2 SLP331
T01281056 $





000
SAUS46 KLOX 051849
MTRSDB
METAR KSDB 051848Z AUTO 09020G30KT 10SM CLR 09/M06 A3046 RMK AO2 PK
WND 08031/1835 SLP299 T00891061 $





000
SAUS46 KLOX 051849
MTRSDB
METAR KSDB 051848Z AUTO 09020G30KT 10SM CLR 09/M06 A3046 RMK AO2 PK
WND 08031/1835 SLP299 T00891061 $





000
SAUS46 KLOX 051848
MTRCQT
METAR KCQT 051847Z AUTO 00000KT 10SM CLR 21/M05 A3032 RMK AO2 SLP267
T02061050





000
SAUS46 KLOX 051848
MTRCQT
METAR KCQT 051847Z AUTO 00000KT 10SM CLR 21/M05 A3032 RMK AO2 SLP267
T02061050





000
SAUS46 KLOX 051759
MTR9L2
METAR K9L2 051756Z AUTO VRB05KT 10SM CLR 11/M04 A3049 RMK AO2 SLP335
T01061039 10106 21033 53012 $





000
SAUS46 KLOX 051749
MTRSDB
METAR KSDB 051748Z AUTO 08023G29KT 10SM CLR 08/M06 A3044 RMK AO2 PK
WND 07030/1728 SLP296 T00781061 10078 20039 53015 $





000
SAUS46 KLOX 051749
MTRSDB
METAR KSDB 051748Z AUTO 08023G29KT 10SM CLR 08/M06 A3044 RMK AO2 PK
WND 07030/1728 SLP296 T00781061 10078 20039 53015 $





000
SAUS46 KLOX 051748
MTRCQT
METAR KCQT 051747Z AUTO 00000KT 10SM CLR 19/M04 A3033 RMK AO2 SLP269
T01941039 10194 20078 51008





000
SAUS46 KLOX 051700
MTR9L2
METAR K9L2 051656Z AUTO 00000KT 10SM CLR 06/M03 A3048 RMK AO2 SLP333
T00611033 $





000
SAUS46 KLOX 051700
MTR9L2
METAR K9L2 051656Z AUTO 00000KT 10SM CLR 06/M03 A3048 RMK AO2 SLP333
T00611033 $





000
SAUS46 KLOX 051649
MTRSDB
METAR KSDB 051648Z AUTO 07021G30KT 10SM CLR 07/M06 A3043 RMK AO2 PK
WND 07031/1601 SLP290 T00671056 $





000
SAUS46 KLOX 051649
MTRSDB
METAR KSDB 051648Z AUTO 07021G30KT 10SM CLR 07/M06 A3043 RMK AO2 PK
WND 07031/1601 SLP290 T00671056 $





000
SAUS46 KLOX 051649
MTRCQT
METAR KCQT 051647Z AUTO VRB03KT 10SM CLR 16/M03 A3033 RMK AO2 SLP269
T01611033





000
SAUS46 KLOX 051649
MTRCQT
METAR KCQT 051647Z AUTO VRB03KT 10SM CLR 16/M03 A3033 RMK AO2 SLP269
T01611033





000
SAUS46 KLOX 051554
MTR9L2
METAR K9L2 051556Z AUTO 00000KT 10SM CLR 02/M04 A3046 RMK AO2 SLP330
T00171044 FZRANO $





000
SAUS46 KLOX 051549
MTRSDB
METAR KSDB 051548Z AUTO 08025KT 10SM CLR 06/M07 A3041 RMK AO2 PK WND
08033/1459 SLP287 T00561067 $





000
SAUS46 KLOX 051548
MTRCQT
METAR KCQT 051547Z AUTO 00000KT 10SM CLR 11/M01 A3032 RMK AO2 SLP268
T01061006





000
SAUS46 KLOX 051501
MTR9L2
METAR K9L2 051456Z AUTO 17003KT 10SM CLR M03/M07 A3045 RMK AO2
SLP332 T10331067 53012 FZRANO $





000
SAUS46 KLOX 051449
MTRSDB
METAR KSDB 051448Z AUTO 08025G31KT 10SM CLR 04/M07 A3039 RMK AO2 PK
WND 07031/1406 SLP281 T00441067 53007 $





000
SAUS46 KLOX 051448
MTRCQT
METAR KCQT 051447Z AUTO 35003KT 10SM CLR 09/M02 A3030 RMK AO2 SLP261
T00891017 53010





000
SAUS46 KLOX 051400
MTR9L2
METAR K9L2 051356Z AUTO 00000KT 10SM CLR M02/M06 A3043 RMK AO2
SLP321 T10221061 FZRANO $





000
SAUS46 KLOX 051349
MTRSDB
METAR KSDB 051348Z AUTO 08024G31KT 10SM CLR 04/M07 A3038 RMK AO2 PK
WND 08031/1346 SLP276 T00391072 $





000
SAUS46 KLOX 051349
MTRSDB
METAR KSDB 051348Z AUTO 08024G31KT 10SM CLR 04/M07 A3038 RMK AO2 PK
WND 08031/1346 SLP276 T00391072 $





000
SAUS46 KLOX 051348
MTRCQT
METAR KCQT 051347Z AUTO 00000KT 10SM CLR 08/M01 A3029 RMK AO2 SLP257
T00781006





000
SAUS46 KLOX 051301
MTR9L2
METAR K9L2 051256Z AUTO 32003KT 10SM CLR M01/M06 A3041 RMK AO2
SLP311 T10111056 FZRANO $





000
SAUS46 KLOX 051301
MTR9L2
METAR K9L2 051256Z AUTO 32003KT 10SM CLR M01/M06 A3041 RMK AO2
SLP311 T10111056 FZRANO $





000
SAUS46 KLOX 051249
MTRSDB
METAR KSDB 051248Z AUTO 07024G29KT 10SM CLR 04/M07 A3037 RMK AO2 PK
WND 07030/1221 SLP273 T00391072 $





000
SAUS46 KLOX 051249
MTRSDB
METAR KSDB 051248Z AUTO 07024G29KT 10SM CLR 04/M07 A3037 RMK AO2 PK
WND 07030/1221 SLP273 T00391072 $





000
SAUS46 KLOX 051248
MTRCQT
METAR KCQT 051247Z AUTO 00000KT 10SM CLR 08/M01 A3028 RMK AO2 SLP252
T00831011





000
SAUS46 KLOX 051248
MTRCQT
METAR KCQT 051247Z AUTO 00000KT 10SM CLR 08/M01 A3028 RMK AO2 SLP252
T00831011





000
SAUS46 KLOX 051200
MTR9L2
METAR K9L2 051156Z AUTO 00000KT 10SM CLR M01/M05 A3041 RMK AO2
SLP310 T10061050 10028 21011 50004 FZRANO $





000
SAUS46 KLOX 051200
MTR9L2
METAR K9L2 051156Z AUTO 00000KT 10SM CLR M01/M05 A3041 RMK AO2
SLP310 T10061050 10028 21011 50004 FZRANO $





000
SAUS46 KLOX 051149
MTRSDB
METAR KSDB 051148Z AUTO 07024G30KT 10SM CLR 04/M08 A3037 RMK AO2 PK
WND 07031/1131 SLP269 T00441083 10056 20044 58002 $





000
SAUS46 KLOX 051149
MTRSDB
METAR KSDB 051148Z AUTO 07024G30KT 10SM CLR 04/M08 A3037 RMK AO2 PK
WND 07031/1131 SLP269 T00441083 10056 20044 58002 $





000
SAUS46 KLOX 051148
MTRCQT
METAR KCQT 051147Z AUTO 00000KT 10SM CLR 09/M01 A3027 RMK AO2 SLP251
T00891011 10139 20083 53004





000
SAUS46 KLOX 051148
MTRCQT
METAR KCQT 051147Z AUTO 00000KT 10SM CLR 09/M01 A3027 RMK AO2 SLP251
T00891011 10139 20083 53004





000
SAUS46 KLOX 051101
MTR9L2
METAR K9L2 051056Z AUTO 36005KT 10SM CLR 00/M05 A3041 RMK AO2 SLP309
T00001050 FZRANO $





000
SAUS46 KLOX 051101
MTR9L2
METAR K9L2 051056Z AUTO 36005KT 10SM CLR 00/M05 A3041 RMK AO2 SLP309
T00001050 FZRANO $





000
SAUS46 KLOX 051049
MTRSDB
METAR KSDB 051048Z AUTO 07021G28KT 10SM CLR 04/M08 A3037 RMK AO2 PK
WND 07028/1001 SLP271 T00441078 $





000
SAUS46 KLOX 051049
MTRSDB
METAR KSDB 051048Z AUTO 07021G28KT 10SM CLR 04/M08 A3037 RMK AO2 PK
WND 07028/1001 SLP271 T00441078 $





000
SAUS46 KLOX 051048
MTRCQT
METAR KCQT 051047Z AUTO 00000KT 10SM CLR 09/M01 A3026 RMK AO2 SLP248
T00891011





000
SAUS46 KLOX 051048
MTRCQT
METAR KCQT 051047Z AUTO 00000KT 10SM CLR 09/M01 A3026 RMK AO2 SLP248
T00891011





000
SAUS46 KLOX 051000
MTR9L2
METAR K9L2 050956Z AUTO 33004KT 10SM CLR 01/M05 A3041 RMK AO2 SLP306
T00111050 FZRANO $





000
SAUS46 KLOX 050950
MTRSDB
METAR KSDB 050948Z AUTO 07021KT 10SM CLR 04/M07 A3037 RMK AO2 PK WND
07029/0907 SLP271 T00441072 $





000
SAUS46 KLOX 050948
MTRCQT
METAR KCQT 050947Z AUTO 00000KT 10SM CLR 10/M02 A3026 RMK AO2 SLP246
T01001022





000
SAUS46 KLOX 050948
MTRCQT
METAR KCQT 050947Z AUTO 00000KT 10SM CLR 10/M02 A3026 RMK AO2 SLP246
T01001022





000
SAUS46 KLOX 050901
MTR9L2
METAR K9L2 050856Z AUTO 33006KT 10SM CLR 01/M05 A3040 RMK AO2 SLP305
T00061050 50002 FZRANO $





000
SAUS46 KLOX 050849
MTRSDB
METAR KSDB 050848Z AUTO 07021G27KT 10SM CLR 05/M07 A3037 RMK AO2 PK
WND 07027/0848 SLP271 T00501067 51003 $





000
SAUS46 KLOX 050849
MTRSDB
METAR KSDB 050848Z AUTO 07021G27KT 10SM CLR 05/M07 A3037 RMK AO2 PK
WND 07027/0848 SLP271 T00501067 51003 $





000
SAUS46 KLOX 050848
MTRCQT
METAR KCQT 050847Z AUTO 00000KT 10SM CLR 11/M02 A3026 RMK AO2 SLP247
T01061017 50003





000
SAUS46 KLOX 050848
MTRCQT
METAR KCQT 050847Z AUTO 00000KT 10SM CLR 11/M02 A3026 RMK AO2 SLP247
T01061017 50003





000
SAUS46 KLOX 050801
MTR9L2
METAR K9L2 050756Z AUTO 36003KT 10SM CLR 01/M05 A3040 RMK AO2 SLP307
T00111050 401441050 FZRANO $





000
SAUS46 KLOX 050749
MTRSDB
METAR KSDB 050748Z AUTO 07020G27KT 10SM CLR 05/M07 A3037 RMK AO2 PK
WND 07029/0713 SLP273 T00501067 400890000 $





000
SAUS46 KLOX 050748
MTRCQT
METAR KCQT 050747Z AUTO 00000KT 10SM CLR 11/01 A3027 RMK AO2 SLP248
T01060006 402110078





000
SAUS46 KLOX 050748
MTRCQT
METAR KCQT 050747Z AUTO 00000KT 10SM CLR 11/01 A3027 RMK AO2 SLP248
T01060006 402110078





000
SAUS46 KLOX 050700
MTR9L2
METAR K9L2 050656Z AUTO 36004KT 10SM CLR 03/M05 A3041 RMK AO2 SLP308
T00281050 $





000
SAUS46 KLOX 050700
MTR9L2
METAR K9L2 050656Z AUTO 36004KT 10SM CLR 03/M05 A3041 RMK AO2 SLP308
T00281050 $





000
SAUS46 KLOX 050649
MTRSDB
METAR KSDB 050648Z AUTO 07021G27KT 10SM CLR 05/M07 A3037 RMK AO2 PK
WND 07029/0549 SLP274 T00501067 $





000
SAUS46 KLOX 050649
MTRSDB
METAR KSDB 050648Z AUTO 07021G27KT 10SM CLR 05/M07 A3037 RMK AO2 PK
WND 07029/0549 SLP274 T00501067 $





000
SAUS46 KLOX 050648
MTRCQT
METAR KCQT 050647Z AUTO 00000KT 10SM CLR 12/00 A3026 RMK AO2 SLP247
T01220000





000
SAUS46 KLOX 050648
MTRCQT
METAR KCQT 050647Z AUTO 00000KT 10SM CLR 12/00 A3026 RMK AO2 SLP247
T01220000





000
SAUS46 KLOX 050601
MTR9L2
METAR K9L2 050556Z AUTO 34005KT 10SM CLR 03/M04 A3040 RMK AO2 SLP309
T00281044 10144 20022 51015 $





000
SAUS46 KLOX 050601
MTR9L2
METAR K9L2 050556Z AUTO 34005KT 10SM CLR 03/M04 A3040 RMK AO2 SLP309
T00281044 10144 20022 51015 $





000
SAUS46 KLOX 050549
MTRSDB
METAR KSDB 050548Z AUTO 07022G28KT 10SM CLR 06/M07 A3036 RMK AO2 PK
WND 08028/0506 SLP273 T00561067 10083 20050 51006 $





000
SAUS46 KLOX 050548
MTRCQT
METAR KCQT 050547Z AUTO 00000KT 10SM CLR 14/M01 A3025 RMK AO2 SLP244
T01391011 10189 20128 53010





000
SAUS46 KLOX 050501
MTR9L2
METAR K9L2 050456Z AUTO 33005KT 10SM CLR 04/M05 A3039 RMK AO2 SLP307
T00441050 $





000
SAUS46 KLOX 050449
MTRSDB
METAR KSDB 050448Z AUTO 07020G26KT 10SM CLR 06/M07 A3036 RMK AO2 PK
WND 07026/0443 SLP271 T00611072 $





000
SAUS46 KLOX 050449
MTRSDB
METAR KSDB 050448Z AUTO 07020G26KT 10SM CLR 06/M07 A3036 RMK AO2 PK
WND 07026/0443 SLP271 T00611072 $





000
SAUS46 KLOX 050448
MTRCQT
METAR KCQT 050447Z AUTO 00000KT 10SM CLR 14/01 A3024 RMK AO2 SLP240
T01390006





000
SAUS46 KLOX 050448
MTRCQT
METAR KCQT 050447Z AUTO 00000KT 10SM CLR 14/01 A3024 RMK AO2 SLP240
T01390006





000
SAUS46 KLOX 050401
MTR9L2
METAR K9L2 050356Z AUTO 02003KT 10SM CLR 06/M05 A3036 RMK AO2 SLP298
T00561050 $





000
SAUS46 KLOX 050401
MTR9L2
METAR K9L2 050356Z AUTO 02003KT 10SM CLR 06/M05 A3036 RMK AO2 SLP298
T00561050 $





000
SAUS46 KLOX 050349
MTRSDB
METAR KSDB 050348Z AUTO 06013G20KT 10SM CLR 06/M08 A3036 RMK AO2
SLP275 T00561078 $





000
SAUS46 KLOX 050348
MTRCQT
METAR KCQT 050347Z AUTO 00000KT 10SM CLR 14/02 A3023 RMK AO2 SLP236
T01440022





000
SAUS46 KLOX 050301
MTR9L2
METAR K9L2 050256Z AUTO 34004KT 10SM CLR 06/M04 A3035 RMK AO2 SLP297
T00561044 53007 $





000
SAUS46 KLOX 050301
MTR9L2
METAR K9L2 050256Z AUTO 34004KT 10SM CLR 06/M04 A3035 RMK AO2 SLP297
T00561044 53007 $





000
SAUS46 KLOX 050249
MTRSDB
METAR KSDB 050248Z AUTO 07016KT 10SM CLR 06/M08 A3034 RMK AO2 SLP271
T00611078 53007 $





000
SAUS46 KLOX 050249
MTRSDB
METAR KSDB 050248Z AUTO 07016KT 10SM CLR 06/M08 A3034 RMK AO2 SLP271
T00611078 53007 $





000
SAUS46 KLOX 050248
MTRCQT
METAR KCQT 050247Z AUTO 00000KT 10SM CLR 16/02 A3022 RMK AO2 SLP234
T01560017 53003





000
SAUS46 KLOX 050248
MTRCQT
METAR KCQT 050247Z AUTO 00000KT 10SM CLR 16/02 A3022 RMK AO2 SLP234
T01560017 53003





000
SAUS46 KLOX 050200
MTR9L2
METAR K9L2 050156Z AUTO 31003KT 10SM CLR 09/M06 A3033 RMK AO2 SLP288
T00941056 $





000
SAUS46 KLOX 050200
MTR9L2
METAR K9L2 050156Z AUTO 31003KT 10SM CLR 09/M06 A3033 RMK AO2 SLP288
T00941056 $





000
SAUS46 KLOX 050149
MTRCQT
METAR KCQT 050147Z AUTO 00000KT 10SM CLR 17/M02 A3022 RMK AO2 SLP231
T01671017





000
SAUS46 KLOX 050149
MTRSDB
METAR KSDB 050148Z AUTO 07019G27KT 10SM CLR 07/M09 A3032 RMK AO2 PK
WND 07028/0136 SLP262 T00671089 $





000
SAUS46 KLOX 050149
MTRSDB
METAR KSDB 050148Z AUTO 07019G27KT 10SM CLR 07/M09 A3032 RMK AO2 PK
WND 07028/0136 SLP262 T00671089 $





000
SAUS46 KLOX 050149
MTRCQT
METAR KCQT 050147Z AUTO 00000KT 10SM CLR 17/M02 A3022 RMK AO2 SLP231
T01671017





000
SAUS46 KLOX 050101
MTR9L2
METAR K9L2 050056Z AUTO 00000KT 10SM CLR 13/M07 A3032 RMK AO2 SLP281
T01331067 $





000
SAUS46 KLOX 050101
MTR9L2
METAR K9L2 050056Z AUTO 00000KT 10SM CLR 13/M07 A3032 RMK AO2 SLP281
T01331067 $





000
SAUS46 KLOX 050049
MTRSDB
METAR KSDB 050048Z AUTO 08017KT 10SM CLR 07/M07 A3032 RMK AO2 PK WND
07028/0033 SLP260 T00671067 $





000
SAUS46 KLOX 050049
MTRCQT
METAR KCQT 050047Z AUTO 00000KT 10SM CLR 18/M03 A3021 RMK AO2 SLP229
T01781033





000
SAUS46 KLOX 050049
MTRCQT
METAR KCQT 050047Z AUTO 00000KT 10SM CLR 18/M03 A3021 RMK AO2 SLP229
T01781033





000
SAUS46 KLOX 050049
MTRSDB
METAR KSDB 050048Z AUTO 08017KT 10SM CLR 07/M07 A3032 RMK AO2 PK WND
07028/0033 SLP260 T00671067 $





000
SAUS46 KLOX 050001
MTR9L2
METAR K9L2 042356Z AUTO 00000KT 10SM CLR 14/M09 A3033 RMK AO2 SLP282
T01391089 10144 20039 56012 $





000
SAUS46 KLOX 050001
MTR9L2
METAR K9L2 042356Z AUTO 00000KT 10SM CLR 14/M09 A3033 RMK AO2 SLP282
T01391089 10144 20039 56012 $





000
SAUS46 KLOX 042349
MTRSDB
METAR KSDB 042348Z AUTO 07019G25KT 10SM CLR 08/M07 A3032 RMK AO2
SLP257 T00831067 10089 20044 56008 $





000
SAUS46 KLOX 042349
MTRSDB
METAR KSDB 042348Z AUTO 07019G25KT 10SM CLR 08/M07 A3032 RMK AO2
SLP257 T00831067 10089 20044 56008 $





000
SAUS46 KLOX 042348
MTRCQT
METAR KCQT 042347Z AUTO 26003KT 10SM CLR 19/M01 A3022 RMK AO2 SLP231
T01891006 10211 20150 56014





000
SAUS46 KLOX 042348
MTRCQT
METAR KCQT 042347Z AUTO 26003KT 10SM CLR 19/M01 A3022 RMK AO2 SLP231
T01891006 10211 20150 56014





000
SAUS46 KLOX 042256
MTR9L2
METAR K9L2 042256Z AUTO 00000KT 10SM CLR 14/M09 A3034 RMK AO2 SLP282
T01441089 $





000
SAUS46 KLOX 042256
MTR9L2
METAR K9L2 042256Z AUTO 00000KT 10SM CLR 14/M09 A3034 RMK AO2 SLP282
T01441089 $





000
SAUS46 KLOX 042249
MTRSDB
METAR KSDB 042248Z AUTO 06017G25KT 10SM CLR 08/M06 A3033 RMK AO2
SLP260 T00831061 $





000
SAUS46 KLOX 042249
MTRSDB
METAR KSDB 042248Z AUTO 06017G25KT 10SM CLR 08/M06 A3033 RMK AO2
SLP260 T00831061 $





000
SAUS46 KLOX 042249
MTRCQT
METAR KCQT 042247Z AUTO 28005KT 10SM CLR 19/M01 A3022 RMK AO2 SLP232
T01941006





000
SAUS46 KLOX 042249
MTRCQT
METAR KCQT 042247Z AUTO 28005KT 10SM CLR 19/M01 A3022 RMK AO2 SLP232
T01941006





000
SAUS46 KLOX 042201
MTR9L2
METAR K9L2 042156Z AUTO 13003KT 10SM CLR 13/M08 A3034 RMK AO2 SLP285
T01281078 $





000
SAUS46 KLOX 042201
MTR9L2
METAR K9L2 042156Z AUTO 13003KT 10SM CLR 13/M08 A3034 RMK AO2 SLP285
T01281078 $





000
SAUS46 KLOX 042149
MTRSDB
METAR KSDB 042148Z AUTO 06016G26KT 10SM CLR 08/M06 A3034 RMK AO2 PK
WND 07026/2104 SLP263 T00831056 $





000
SAUS46 KLOX 042149
MTRSDB
METAR KSDB 042148Z AUTO 06016G26KT 10SM CLR 08/M06 A3034 RMK AO2 PK
WND 07026/2104 SLP263 T00831056 $





000
SAUS46 KLOX 042148
MTRCQT
METAR KCQT 042147Z AUTO 00000KT 10SM CLR 20/M03 A3023 RMK AO2 SLP236
T02001033





000
SAUS46 KLOX 042101
MTR9L2
METAR K9L2 042056Z AUTO 00000KT 10SM CLR 13/M07 A3037 RMK AO2 SLP292
T01281072 58026 $





000
SAUS46 KLOX 042049
MTRSDB
METAR KSDB 042048Z AUTO 06018G25KT 10SM CLR 08/M07 A3035 RMK AO2 PK
WND 07028/2029 SLP267 T00781067 58013 $





000
SAUS46 KLOX 042048
MTRCQT
METAR KCQT 042047Z AUTO 00000KT 10SM CLR 20/M03 A3026 RMK AO2 SLP245
T02001033 58026





000
SAUS46 KLOX 042001
MTR9L2
METAR K9L2 041956Z AUTO 17003KT 10SM CLR 11/M07 A3040 RMK AO2 SLP307
T01061072 $





000
SAUS46 KLOX 042001
MTR9L2
METAR K9L2 041956Z AUTO 17003KT 10SM CLR 11/M07 A3040 RMK AO2 SLP307
T01061072 $





000
SAUS46 KLOX 041949
MTRSDB
METAR KSDB 041948Z AUTO 06018G25KT 10SM CLR 07/M07 A3037 RMK AO2 PK
WND 07029/1856 SLP274 T00721072 $





000
SAUS46 KLOX 041949
MTRSDB
METAR KSDB 041948Z AUTO 06018G25KT 10SM CLR 07/M07 A3037 RMK AO2 PK
WND 07029/1856 SLP274 T00721072 $





000
SAUS46 KLOX 041948
MTRCQT
METAR KCQT 041947Z AUTO 00000KT 10SM CLR 19/M03 A3029 RMK AO2 SLP256
T01891033





000
SAUS46 KLOX 041948
MTRCQT
METAR KCQT 041947Z AUTO 00000KT 10SM CLR 19/M03 A3029 RMK AO2 SLP256
T01891033





000
SAUS46 KLOX 041901
MTR9L2
METAR K9L2 041856Z AUTO 07003KT 10SM CLR 09/M08 A3043 RMK AO2 SLP319
T00891083 $





000
SAUS46 KLOX 041901
MTR9L2
METAR K9L2 041856Z AUTO 07003KT 10SM CLR 09/M08 A3043 RMK AO2 SLP319
T00891083 $





000
SAUS46 KLOX 041849
MTRSDB
METAR KSDB 041848Z AUTO 06018G30KT 10SM CLR 06/M08 A3039 RMK AO2 PK
WND 07030/1840 SLP284 T00561078 $





000
SAUS46 KLOX 041849
MTRSDB
METAR KSDB 041848Z AUTO 06018G30KT 10SM CLR 06/M08 A3039 RMK AO2 PK
WND 07030/1840 SLP284 T00561078 $





000
SAUS46 KLOX 041848
MTRCQT
METAR KCQT 041847Z AUTO 00000KT 10SM CLR 17/M04 A3032 RMK AO2 SLP266
T01671039





000
SAUS46 KLOX 041848
MTRCQT
METAR KCQT 041847Z AUTO 00000KT 10SM CLR 17/M04 A3032 RMK AO2 SLP266
T01671039





000
SAUS46 KLOX 041756
MTR9L2
METAR K9L2 041756Z AUTO 00000KT 10SM CLR 04/M05 A3045 RMK AO2 SLP327
T00391050 10039 21050 51012 $





000
SAUS46 KLOX 041749
MTRSDB
METAR KSDB 041748Z AUTO 06018G27KT 10SM CLR 04/M08 A3039 RMK AO2 PK
WND 07028/1650 SLP286 T00441083 10044 20000 51014 $





000
SAUS46 KLOX 041749
MTRSDB
METAR KSDB 041748Z AUTO 06018G27KT 10SM CLR 04/M08 A3039 RMK AO2 PK
WND 07028/1650 SLP286 T00441083 10044 20000 51014 $





000
SAUS46 KLOX 041748
MTRCQT
METAR KCQT 041747Z AUTO VRB03KT 10SM CLR 15/M03 A3033 RMK AO2 SLP271
T01501033 10150 20078 50004





000
SAUS46 KLOX 041748
MTRCQT
METAR KCQT 041747Z AUTO VRB03KT 10SM CLR 15/M03 A3033 RMK AO2 SLP271
T01501033 10150 20078 50004





000
SAUS46 KLOX 041700
MTR9L2
METAR K9L2 041656Z AUTO 00000KT 10SM CLR 01/M06 A3045 RMK AO2 SLP327
T00111061 FZRANO $





000
SAUS46 KLOX 041700
MTR9L2
METAR K9L2 041656Z AUTO 00000KT 10SM CLR 01/M06 A3045 RMK AO2 SLP327
T00111061 FZRANO $





000
SAUS46 KLOX 041649
MTRSDB
METAR KSDB 041648Z AUTO 06016G27KT 10SM CLR 03/M11 A3038 RMK AO2 PK
WND 08027/1643 SLP285 T00331106 $





000
SAUS46 KLOX 041648
MTRCQT
METAR KCQT 041647Z AUTO 03003KT 10SM CLR 13/M02 A3034 RMK AO2 SLP273
T01281017





000
SAUS46 KLOX 041556
MTR9L2
METAR K9L2 041556Z AUTO 00000KT 10SM CLR 01/M06 A3043 RMK AO2 SLP321
T00061056 FZRANO $





000
SAUS46 KLOX 041549
MTRSDB
METAR KSDB 041548Z AUTO 06017G23KT 10SM CLR 02/M12 A3036 RMK AO2 PK
WND 07026/1527 SLP278 T00221117 $





000
SAUS46 KLOX 041548
MTRCQT
METAR KCQT 041547Z AUTO 00000KT 10SM CLR 09/M02 A3033 RMK AO2 SLP271
T00941022





000
SAUS46 KLOX 041548
MTRCQT
METAR KCQT 041547Z AUTO 00000KT 10SM CLR 09/M02 A3033 RMK AO2 SLP271
T00941022





    US Dept of Commerce
    National Oceanic and Atmospheric Administration
    National Weather Service
    1325 East West Highway
    Silver Spring, MD 20910
    Page Author: NWS Internet Services Team
Disclaimer
Information Quality
Credits
Glossary
Privacy Policy
Freedom of Information Act (FOIA)
About Us
Career Opportunities